Contact Us:
Email: info@sawbill.com
Phone: (218)663-7150
Fax: (218)663-7980
Mail: 4620 Sawbill Trail
Box 2129
Tofte, MN 55615


Powered by
Movable Type 3.15
 
Sawbill Weather History Archives: April 2005
Current Sawbill Weather History | « March 2005 | May 2005 »


Date

High
Temperature

Low
Temperature

Barometric
Pressure

Relative
Humidity 7AM

9 AM
Temperature

Moisture

Snow

4/30/05 50 33 29.81 80% 33 .01" 1"
4/29/05 47 28 29.87 76% 33 Trace Trace
4/28/05 41 32 29.90 75% 33 Trace Trace
4/27/05 39 30 29.82 69% 33 0
4/26/05 59 31 29.62 75% 32 .2" 1"
4/24/05 59 32 30.20 71% 40 0
4/23/05 47 26 30.01 66% 32 0
4/22/05 42 25 30.20 50% 26 0
4/21/05 67 25 30.21 67% 37 0
4/20/05 59 25 30.17 72% 25 0
4/19/05 70 41 30.14 68% 42 0
4/18/05 75 35 29.87 77% 42 .05"
4/17/05 70 35 29.97 74% 45 0
4/16/05 68 34 30.26 77% 35 0
4/15/05 66 35 30.26 81% 40 .02"
4/14/05 63 30 30.30 65% 35 0
4/13/05 66 30 30.38 65% 30 0
4/12/05 65 30 30.26 63% 30 0
4/11/05 50 39 30.04 31% 30 0 .2"
4/10/05 65 43 30.10 61% 43 Trace
4/9/05 62 35 30.01 61% 44 0
4/8/05 60 32 29.95 23% 35 0
4/7/05 61 31 30.09 72% 32 0
4/6/05 53 31 30.11 80% 34 0
4/5/05 58 38 30.08 73% 40 0
4/4/05 54 34 29.81 53% 38 0
4/3/05 57 30 29.96 69% 31 0
4/2/05 50 25 29.98 75% 32 0
4/1/05 45 25 29.56 63% 25 0
 


Home I Trip Planning I Rentals and Outfitting I Reservations I Campgrounds I Sawbill Store I Sawbill News I Contact

© 1997 - 2017, Sawbill Canoe Outfitters, Inc. I Privacy Policy